Time;durP1;ratioP1;P1;durP2;ratioP2;P2;SDS_P1;SDS_P2;PMS_P1;PMS_P2;Temp;Humidity;BMP_temperature;BMP_pressure;BME280_temperature;BME280_humidity;BME280_pressure;Samples;Min_cycle;Max_cycle;Signal;HPM_P1;HPM_P2
2022/08/12 00:42:54;;;;;;;0.10;0.10;;;17.10;94.20;226.50;231333.00;;;;5032939;28;20195;-68
2022/08/12 00:45:22;;;;;;;0.00;0.00;;;16.90;94.80;226.50;231333.00;;;;5033015;28;20230;-69
2022/08/12 00:47:53;;;;;;;0.00;0.00;;;16.90;94.70;226.50;231333.00;;;;5032818;28;20195;-69
2022/08/12 00:50:25;;;;;;;0.00;0.00;;;17.00;94.70;226.50;231333.00;;;;5033029;28;20206;-69
2022/08/12 00:52:54;;;;;;;0.00;0.00;;;16.90;94.80;226.50;231333.00;;;;5032627;28;20218;-70
2022/08/12 00:55:22;;;;;;;0.05;0.05;;;16.90;94.90;226.50;231333.00;;;;5031803;28;20203;-71
2022/08/12 00:57:51;;;;;;;0.10;0.10;;;17.00;94.80;226.50;231333.00;;;;5032939;28;20195;-69
2022/08/12 01:00:22;;;;;;;0.00;0.00;;;17.00;94.90;226.50;231333.00;;;;5040579;28;20205;-69
2022/08/12 01:02:56;;;;;;;0.10;0.10;;;16.90;95.10;226.50;231333.00;;;;5052230;28;20195;-70
2022/08/12 01:13:53;;;;;;;0.10;0.10;;;16.60;96.50;226.50;231333.00;;;;5008269;28;20218;-70
2022/08/12 01:16:22;;;;;;;0.10;0.10;;;16.40;96.70;226.50;231333.00;;;;5033620;28;20242;-69
2022/08/12 01:18:54;;;;;;;0.00;0.00;;;16.40;97.00;226.50;231333.00;;;;5034899;28;20196;-71
2022/08/12 01:21:56;;;;;;;0.00;0.00;;;16.30;97.20;226.50;231333.00;;;;5035546;28;20198;-69
2022/08/12 01:24:53;;;;;;;0.10;0.10;;;16.20;97.60;226.50;231333.00;;;;5034307;28;20194;-68
2022/08/12 01:27:23;;;;;;;0.05;0.05;;;16.20;97.80;226.50;231333.00;;;;5033162;28;20243;-71
2022/08/12 01:29:53;;;;;;;0.00;0.00;;;16.30;97.80;226.50;231333.00;;;;5033772;28;20203;-70
2022/08/12 01:32:26;;;;;;;0.10;0.10;;;16.40;97.70;226.50;231333.00;;;;5033483;28;20191;-70
2022/08/12 01:35:04;;;;;;;0.10;0.10;;;16.20;97.90;226.50;231333.00;;;;5031735;28;20195;-70
2022/08/12 01:37:36;;;;;;;0.10;0.10;;;16.20;98.20;226.50;231333.00;;;;5031891;28;20218;-70
2022/08/12 01:40:11;;;;;;;0.10;0.10;;;16.30;98.20;226.50;231333.00;;;;5032054;28;20206;-70
2022/08/12 01:43:07;;;;;;;0.05;0.05;;;16.20;98.30;226.50;231333.00;;;;5026022;28;20198;-71
2022/08/12 01:45:45;;;;;;;0.03;0.03;;;16.20;98.30;226.50;231333.00;;;;5031899;28;20269;-70
2022/08/12 01:48:25;;;;;;;0.10;0.10;;;16.00;98.80;226.50;231333.00;;;;5031295;28;20187;-72
2022/08/12 01:51:04;;;;;;;0.00;0.00;;;15.80;99.40;226.50;231333.00;;;;5018735;28;20203;-70
2022/08/12 01:53:48;;;;;;;0.00;0.00;;;15.70;99.80;226.50;231333.00;;;;5024031;28;20730;-69
2022/08/12 01:56:24;;;;;;;0.00;0.00;;;15.80;99.80;226.50;231333.00;;;;5011991;28;20593;-71
2022/08/12 02:01:50;;;;;;;0.10;0.10;;;15.80;99.90;226.50;231333.00;;;;5032099;28;20209;-69
2022/08/12 02:14:01;;;;;;;0.10;0.10;;;15.70;99.90;226.50;231333.00;;;;5018894;28;20218;-70
2022/08/12 02:16:46;;;;;;;0.10;0.10;;;15.70;99.90;226.50;231333.00;;;;5031615;28;20215;-69
2022/08/12 02:19:34;;;;;;;0.00;0.00;;;15.80;99.90;226.50;231333.00;;;;5031443;28;20187;-70
2022/08/12 02:22:22;;;;;;;0.10;0.10;;;15.60;99.90;226.50;231333.00;;;;5031219;28;20187;-71
2022/08/12 02:24:53;;;;;;;0.10;0.10;;;15.50;99.90;226.50;231333.00;;;;5031359;28;20195;-70
2022/08/12 02:27:26;;;;;;;0.10;0.10;;;15.30;99.90;226.50;231333.00;;;;5031473;28;20226;-69
2022/08/12 02:29:56;;;;;;;0.10;0.10;;;15.20;99.90;226.50;231333.00;;;;5031838;28;20199;-70
2022/08/12 02:32:24;;;;;;;0.00;0.00;;;15.20;99.90;226.50;231333.00;;;;5031465;28;20199;-69
2022/08/12 02:34:52;;;;;;;0.05;0.05;;;15.10;99.90;226.50;231333.00;;;;5033627;28;20198;-69
2022/08/12 02:37:23;;;;;;;0.00;0.00;;;15.10;99.90;226.50;231333.00;;;;5032701;28;20214;-69
2022/08/12 02:39:55;;;;;;;0.10;0.10;;;15.00;99.90;226.50;231333.00;;;;5034122;28;20191;-71
2022/08/12 02:42:27;;;;;;;0.00;0.00;;;14.90;99.90;226.50;231333.00;;;;5034468;28;20772;-72
2022/08/12 02:45:05;;;;;;;0.10;0.10;;;14.90;99.90;226.50;231333.00;;;;5033780;28;20203;-69
2022/08/12 02:47:40;;;;;;;0.10;0.10;;;14.80;99.90;226.50;231333.00;;;;5030326;28;20541;-69
2022/08/12 02:50:33;;;;;;;0.10;0.10;;;14.60;99.90;226.50;231333.00;;;;5027512;28;20195;-73
2022/08/12 02:53:04;;;;;;;0.00;0.00;;;14.60;99.90;226.50;231333.00;;;;5034189;28;20206;-69
2022/08/12 02:55:35;;;;;;;0.00;0.00;;;14.70;99.90;226.50;231333.00;;;;5034139;28;20222;-70
2022/08/12 02:58:08;;;;;;;0.10;0.10;;;14.50;99.90;226.50;231333.00;;;;5015019;28;20202;-72
2022/08/12 03:00:43;;;;;;;0.10;0.10;;;14.40;99.90;226.50;231333.00;;;;5030793;28;20539;-68
2022/08/12 03:03:14;;;;;;;0.10;0.10;;;14.40;99.90;226.50;231333.00;;;;5032611;28;20200;-69
2022/08/12 03:05:49;;;;;;;0.10;0.10;;;14.50;99.90;226.50;231333.00;;;;5032520;28;20597;-69
2022/08/12 03:08:28;;;;;;;0.00;0.00;;;14.50;99.90;226.50;231333.00;;;;5031008;28;20195;-69
2022/08/12 03:11:04;;;;;;;0.10;0.10;;;14.50;99.90;226.50;231333.00;;;;5018792;28;20693;-69
2022/08/12 03:13:46;;;;;;;0.10;0.10;;;14.60;99.90;226.50;231333.00;;;;5019983;28;20220;-70
2022/08/12 03:16:16;;;;;;;0.10;0.10;;;14.70;99.90;226.50;231333.00;;;;5031120;28;20225;-70
2022/08/12 03:18:45;;;;;;;0.00;0.00;;;14.60;99.90;226.50;231333.00;;;;5032827;28;20218;-71
2022/08/12 03:21:17;;;;;;;0.10;0.10;;;14.70;99.90;226.50;231333.00;;;;5014951;28;20200;-69
2022/08/12 03:24:09;;;;;;;0.10;0.10;;;14.70;99.90;226.50;231333.00;;;;5026415;28;20191;-70
2022/08/12 03:26:37;;;;;;;0.10;0.10;;;14.70;99.90;226.50;231333.00;;;;5034517;28;20210;-69
2022/08/12 03:29:06;;;;;;;0.10;0.10;;;14.70;99.90;226.50;231333.00;;;;5024593;28;20206;-70
2022/08/12 03:31:36;;;;;;;0.00;0.00;;;14.70;99.90;226.50;231333.00;;;;5015064;28;20267;-69
2022/08/12 03:34:07;;;;;;;0.10;0.10;;;14.60;99.90;226.50;231333.00;;;;5026244;28;20206;-71
2022/08/12 03:36:39;;;;;;;0.00;0.00;;;14.60;99.90;226.50;231333.00;;;;5035201;28;20670;-71
2022/08/12 03:42:22;;;;;;;0.10;0.10;;;14.50;99.90;226.50;231333.00;;;;5033415;28;20285;-69
2022/08/12 04:01:56;;;;;;;0.10;0.10;;;14.30;99.90;226.50;231333.00;;;;5053059;28;20190;-71
2022/08/12 04:04:32;;;;;;;0.10;0.10;;;14.20;99.90;226.50;231333.00;;;;5041087;28;20207;-70
2022/08/12 04:07:03;;;;;;;0.10;0.10;;;14.30;99.90;226.50;231333.00;;;;5036224;28;20238;-71
2022/08/12 04:09:32;;;;;;;0.10;0.10;;;14.20;99.90;226.50;231333.00;;;;5033974;28;20199;-70
2022/08/12 04:14:47;;;;;;;0.10;0.10;;;14.10;99.90;226.50;231333.00;;;;5033612;28;20214;-71
2022/08/12 04:17:15;;;;;;;0.10;0.10;;;14.00;99.90;226.50;231333.00;;;;5033436;28;20230;-71
2022/08/12 04:19:46;;;;;;;0.10;0.10;;;14.10;99.90;226.50;231333.00;;;;5032562;28;20195;-69
2022/08/12 04:22:15;;;;;;;0.10;0.10;;;14.00;99.90;226.50;231333.00;;;;5033567;28;20187;-69
2022/08/12 04:24:44;;;;;;;0.03;0.03;;;13.80;99.90;226.50;231333.00;;;;5026814;28;20604;-69
2022/08/12 04:27:17;;;;;;;0.10;0.10;;;13.80;99.90;226.50;231333.00;;;;5012176;28;20237;-69
2022/08/12 04:29:45;;;;;;;0.10;0.10;;;13.80;99.90;226.50;231333.00;;;;5013812;28;20544;-70
2022/08/12 04:32:35;;;;;;;0.10;0.10;;;13.80;99.90;226.50;231333.00;;;;5014616;28;20196;-69
2022/08/12 04:35:12;;;;;;;0.10;0.10;;;13.90;99.90;226.50;231333.00;;;;5025060;28;20647;-72
2022/08/12 04:37:40;;;;;;;0.10;0.10;;;13.70;99.90;226.50;231333.00;;;;5040292;28;20199;-71
2022/08/12 04:40:29;;;;;;;0.10;0.10;;;13.70;99.90;226.50;231333.00;;;;5020675;28;20258;-70
2022/08/12 04:42:59;;;;;;;0.10;0.10;;;13.80;99.90;226.50;231333.00;;;;5035414;28;20198;-70
2022/08/12 04:45:29;;;;;;;0.10;0.10;;;13.90;99.90;226.50;231333.00;;;;5033694;28;20241;-69
2022/08/12 04:47:57;;;;;;;0.10;0.10;;;13.90;99.90;226.50;231333.00;;;;5031556;28;20215;-70
2022/08/12 04:50:28;;;;;;;0.10;0.10;;;13.90;99.90;226.50;231333.00;;;;5029897;28;20286;-71
2022/08/12 04:53:05;;;;;;;0.10;0.10;;;13.90;99.90;226.50;231333.00;;;;5016871;28;20364;-71
2022/08/12 04:55:37;;;;;;;0.10;0.10;;;13.90;99.90;226.50;231333.00;;;;5023371;28;20269;-70
2022/08/12 04:58:06;;;;;;;0.10;0.10;;;14.00;99.90;226.50;231333.00;;;;5020989;28;20203;-72
2022/08/12 05:00:35;;;;;;;0.10;0.10;;;14.00;99.90;226.50;231333.00;;;;5044560;28;20478;-71
2022/08/12 05:03:04;;;;;;;0.00;0.00;;;14.00;99.90;226.50;231333.00;;;;5033225;28;20650;-71
2022/08/12 05:05:36;;;;;;;0.10;0.10;;;14.00;99.90;226.50;231333.00;;;;5026735;28;20230;-70
2022/08/12 05:08:10;;;;;;;0.08;0.08;;;14.00;99.90;226.50;231333.00;;;;5012718;28;20590;-70
2022/08/12 05:10:39;;;;;;;0.00;0.00;;;14.10;99.90;226.50;231333.00;;;;5017059;28;20682;-70
2022/08/12 05:13:13;;;;;;;0.10;0.10;;;14.20;99.90;226.50;231333.00;;;;5031857;28;20192;-71
2022/08/12 05:15:43;;;;;;;0.05;0.05;;;14.40;99.90;226.50;231333.00;;;;5032348;28;20221;-70
2022/08/12 05:18:32;;;;;;;0.00;0.00;;;14.50;99.90;226.50;231333.00;;;;5031824;28;20187;-70
2022/08/12 05:21:04;;;;;;;0.10;0.10;;;14.50;99.90;226.50;231333.00;;;;5039712;28;20245;-72
2022/08/12 05:23:32;;;;;;;0.10;0.10;;;14.40;99.90;226.50;231333.00;;;;5033175;28;20205;-70
2022/08/12 05:26:00;;;;;;;0.10;0.10;;;14.40;99.90;226.50;231333.00;;;;5043191;28;20231;-72
2022/08/12 05:28:29;;;;;;;0.10;0.10;;;14.50;99.90;226.50;231333.00;;;;5031170;28;20234;-72
2022/08/12 05:31:00;;;;;;;0.10;0.10;;;14.50;99.90;226.50;231333.00;;;;5043937;28;20201;-71
2022/08/12 05:33:36;;;;;;;0.10;0.10;;;14.70;99.90;226.50;231333.00;;;;5031835;28;20609;-70
2022/08/12 05:36:08;;;;;;;0.10;0.10;;;14.70;99.90;226.50;231333.00;;;;5038577;28;20304;-70
2022/08/12 05:41:23;;;;;;;0.10;0.10;;;14.80;99.90;226.50;231333.00;;;;5041947;28;20199;-70
2022/08/12 05:43:54;;;;;;;0.10;0.10;;;14.80;99.90;226.50;231333.00;;;;5032611;28;20668;-70
2022/08/12 05:46:25;;;;;;;0.10;0.10;;;14.90;99.90;226.50;231333.00;;;;5042959;28;20219;-70
2022/08/12 05:48:54;;;;;;;0.10;0.10;;;15.00;99.90;226.50;231333.00;;;;5032750;28;20205;-71
2022/08/12 05:51:25;;;;;;;0.10;0.10;;;14.90;99.90;226.50;231333.00;;;;5043026;28;20214;-70
2022/08/12 05:54:09;;;;;;;0.00;0.00;;;14.80;99.90;226.50;231333.00;;;;5030629;28;20285;-71
2022/08/12 05:56:38;;;;;;;0.00;0.00;;;14.90;99.90;226.50;231333.00;;;;5048263;28;20221;-70
2022/08/12 05:59:09;;;;;;;0.05;0.05;;;14.90;99.90;226.50;231333.00;;;;5050596;28;20217;-70
2022/08/12 06:01:40;;;;;;;0.05;0.05;;;15.00;99.90;226.50;231333.00;;;;5035511;28;20202;-70
2022/08/12 06:04:31;;;;;;;0.00;0.00;;;15.10;99.90;226.50;231333.00;;;;5040466;28;20199;-70
2022/08/12 06:07:01;;;;;;;0.10;0.10;;;15.20;99.90;226.50;231333.00;;;;5039550;28;20219;-70
2022/08/12 06:09:49;;;;;;;0.10;0.10;;;15.30;99.90;226.50;231333.00;;;;5033466;28;20251;-72
2022/08/12 06:12:22;;;;;;;0.00;0.00;;;15.40;99.90;226.50;231333.00;;;;5032581;28;20195;-70
2022/08/12 06:14:50;;;;;;;0.10;0.10;;;15.50;99.90;226.50;231333.00;;;;5032765;28;20563;-70
2022/08/12 06:17:18;;;;;;;0.10;0.10;;;15.60;99.90;226.50;231333.00;;;;5045836;28;20218;-74
2022/08/12 06:19:47;;;;;;;0.00;0.00;;;15.80;99.90;226.50;231333.00;;;;5044353;28;20573;-70
2022/08/12 06:22:38;;;;;;;0.00;0.00;;;15.80;99.90;226.50;231333.00;;;;5047241;28;20194;-70
2022/08/12 06:25:07;;;;;;;0.00;0.00;;;16.00;99.90;226.50;231333.00;;;;5040558;28;20602;-71
2022/08/12 06:27:47;;;;;;;0.10;0.10;;;16.10;99.90;226.50;231333.00;;;;5033031;28;20229;-70
2022/08/12 06:30:36;;;;;;;0.10;0.10;;;16.30;99.90;226.50;231333.00;;;;5049336;28;20206;-71
2022/08/12 06:33:07;;;;;;;0.00;0.00;;;16.50;99.90;226.50;231333.00;;;;5030473;28;20187;-70
2022/08/12 06:35:53;;;;;;;0.10;0.10;;;16.60;99.90;226.50;231333.00;;;;5043916;28;20210;-70
2022/08/12 06:38:29;;;;;;;0.10;0.10;;;16.70;99.90;226.50;231333.00;;;;5024211;28;20202;-71
2022/08/12 06:43:50;;;;;;;0.00;0.00;;;16.90;99.90;226.50;231333.00;;;;5007046;28;20215;-70
2022/08/12 06:46:37;;;;;;;0.10;0.10;;;17.00;99.90;226.50;231333.00;;;;5016408;28;20305;-71
2022/08/12 06:49:05;;;;;;;0.10;0.10;;;17.30;99.90;226.50;231333.00;;;;5016411;28;20305;-72
2022/08/12 06:51:33;;;;;;;0.00;0.00;;;17.40;99.90;226.50;231333.00;;;;5020251;28;20613;-71
2022/08/12 06:54:03;;;;;;;0.10;0.10;;;17.60;99.90;226.50;231333.00;;;;5033869;28;20572;-71
2022/08/12 06:56:31;;;;;;;0.00;0.00;;;17.70;99.90;226.50;231333.00;;;;5020425;28;20598;-72
2022/08/12 06:59:20;;;;;;;0.00;0.00;;;17.80;99.90;226.50;231333.00;;;;5017769;28;20208;-72
2022/08/12 07:01:49;;;;;;;0.10;0.10;;;18.00;99.90;226.50;231333.00;;;;5020907;28;20195;-71
2022/08/12 07:04:19;;;;;;;0.00;0.00;;;18.10;99.90;226.50;231333.00;;;;5020869;28;20192;-71
2022/08/12 07:07:07;;;;;;;0.00;0.00;;;18.30;99.90;226.50;231333.00;;;;5015509;28;20219;-71
2022/08/12 07:09:38;;;;;;;0.10;0.10;;;18.50;99.90;226.50;231333.00;;;;5042744;28;20322;-71
2022/08/12 07:12:26;;;;;;;0.00;0.00;;;18.60;99.90;226.50;231333.00;;;;5015909;28;20195;-71
2022/08/12 07:14:56;;;;;;;0.08;0.08;;;18.80;99.90;226.50;231333.00;;;;5031842;28;20206;-70
2022/08/12 07:17:25;;;;;;;0.00;0.00;;;19.00;99.90;226.50;231333.00;;;;5034627;28;20266;-71
2022/08/12 07:19:53;;;;;;;0.00;0.00;;;19.10;99.90;226.50;231333.00;;;;5034660;28;20676;-71
2022/08/12 07:22:27;;;;;;;0.00;0.00;;;19.30;99.90;226.50;231333.00;;;;5023504;28;20262;-71
2022/08/12 07:27:41;;;;;;;0.00;0.00;;;19.60;99.90;226.50;231333.00;;;;5022511;28;20286;-72
2022/08/12 07:30:11;;;;;;;0.00;0.00;;;19.90;99.90;226.50;231333.00;;;;5018126;28;20206;-71
2022/08/12 07:32:39;;;;;;;0.00;0.00;;;20.00;99.90;226.50;231333.00;;;;5024757;28;20203;-71
2022/08/12 07:35:08;;;;;;;0.00;0.00;;;20.20;99.90;226.50;231333.00;;;;5031938;28;20191;-72
2022/08/12 07:37:41;;;;;;;0.00;0.00;;;20.40;99.90;226.50;231333.00;;;;5025956;28;20586;-71
2022/08/12 07:40:11;;;;;;;0.00;0.00;;;20.60;99.90;226.50;231333.00;;;;5018055;28;20686;-71
2022/08/12 07:42:42;;;;;;;0.00;0.00;;;20.70;99.90;226.50;231333.00;;;;5026023;28;20197;-71
2022/08/12 07:45:12;;;;;;;0.10;0.10;;;20.90;99.90;226.50;231333.00;;;;5014229;28;20203;-71
2022/08/12 07:47:42;;;;;;;0.00;0.00;;;21.10;99.90;226.50;231333.00;;;;5018404;28;20184;-72
2022/08/12 07:50:12;;;;;;;0.00;0.00;;;21.20;99.90;226.50;231333.00;;;;5017649;28;20199;-71
2022/08/12 07:52:45;;;;;;;0.10;0.10;;;21.40;99.90;226.50;231333.00;;;;5034016;28;20278;-71
2022/08/12 07:55:17;;;;;;;0.00;0.00;;;21.60;99.90;226.50;231333.00;;;;5021068;28;20207;-71
2022/08/12 07:57:52;;;;;;;0.00;0.00;;;21.90;99.90;226.50;231333.00;;;;5025773;28;20219;-71
2022/08/12 08:00:22;;;;;;;0.00;0.00;;;22.10;99.50;226.50;231333.00;;;;5029439;28;20277;-71
2022/08/12 08:02:53;;;;;;;0.00;0.00;;;22.30;98.80;226.50;231333.00;;;;5028490;28;20202;-71
2022/08/12 08:05:23;;;;;;;0.00;0.00;;;22.50;98.10;226.50;231333.00;;;;5022609;28;20694;-72
2022/08/12 08:07:54;;;;;;;0.00;0.00;;;22.70;97.80;226.50;231333.00;;;;5033151;28;20243;-72
2022/08/12 08:10:25;;;;;;;0.00;0.00;;;22.80;97.80;226.50;231333.00;;;;5033716;28;20199;-72
2022/08/12 08:12:57;;;;;;;0.00;0.00;;;23.00;96.50;226.50;231333.00;;;;5029689;28;20199;-72
2022/08/12 08:15:30;;;;;;;0.00;0.00;;;23.20;95.70;226.50;231333.00;;;;5030987;28;20195;-72
2022/08/12 08:18:19;;;;;;;0.00;0.00;;;23.30;95.60;226.50;231333.00;;;;5022905;28;20293;-72
2022/08/12 08:20:56;;;;;;;0.00;0.00;;;23.50;95.40;226.50;231333.00;;;;5032811;28;20206;-72
2022/08/12 08:26:17;;;;;;;0.00;0.00;;;23.80;94.40;226.50;231333.00;;;;5018076;28;20238;-71
2022/08/12 08:28:45;;;;;;;0.00;0.00;;;24.00;93.70;226.50;231333.00;;;;5013586;28;20227;-70
2022/08/12 08:31:13;;;;;;;0.00;0.00;;;24.20;93.50;226.50;231333.00;;;;5028313;28;20569;-70
2022/08/12 08:33:41;;;;;;;0.00;0.00;;;24.40;93.50;226.50;231333.00;;;;5024851;28;20191;-70
2022/08/12 08:36:29;;;;;;;0.00;0.00;;;24.50;92.70;226.50;231333.00;;;;5013785;28;20214;-70
2022/08/12 08:38:57;;;;;;;0.00;0.00;;;24.60;92.60;226.50;231333.00;;;;5013572;28;20604;-70
2022/08/12 08:44:36;;;;;;;0.00;0.00;;;24.80;91.90;226.50;231333.00;;;;5031724;28;20204;-73
2022/08/12 08:47:05;;;;;;;0.00;0.00;;;24.90;91.50;226.50;231333.00;;;;5033288;28;20215;-70
2022/08/12 08:49:35;;;;;;;0.00;0.00;;;25.00;91.80;226.50;231333.00;;;;5019758;28;20298;-72
2022/08/12 08:52:06;;;;;;;0.00;0.00;;;25.00;91.20;226.50;231333.00;;;;5033387;28;20237;-71
2022/08/12 08:54:36;;;;;;;0.00;0.00;;;25.10;90.80;226.50;231333.00;;;;5030678;28;20197;-72
2022/08/12 08:57:08;;;;;;;0.00;0.00;;;25.10;89.90;226.50;231333.00;;;;5012772;28;20737;-71
2022/08/12 08:59:36;;;;;;;0.00;0.00;;;25.00;90.00;226.50;231333.00;;;;5014787;28;20218;-71
2022/08/12 09:02:05;;;;;;;0.00;0.00;;;25.00;90.00;226.50;231333.00;;;;5033936;28;20270;-71
2022/08/12 09:04:35;;;;;;;0.00;0.00;;;25.00;90.00;226.50;231333.00;;;;5030471;28;20215;-71
2022/08/12 09:07:24;;;;;;;0.00;0.00;;;24.90;90.00;226.50;231333.00;;;;5018987;28;20250;-71
2022/08/12 09:10:15;;;;;;;0.00;0.00;;;24.80;89.50;226.50;231333.00;;;;5031904;28;20223;-71
2022/08/12 09:16:06;;;;;;;0.00;0.00;;;24.70;90.50;226.50;231333.00;;;;5028459;28;20904;-71
2022/08/12 09:18:34;;;;;;;0.00;0.00;;;24.70;90.60;226.50;231333.00;;;;5015137;28;20208;-70
2022/08/12 09:21:03;;;;;;;0.00;0.00;;;24.80;90.50;226.50;231333.00;;;;5023893;28;20191;-70
2022/08/12 09:23:35;;;;;;;0.00;0.00;;;24.80;89.30;226.50;231333.00;;;;5029293;28;20209;-69
2022/08/12 09:26:23;;;;;;;0.00;0.00;;;24.80;89.10;226.50;231333.00;;;;5031757;28;20710;-70
2022/08/12 09:29:12;;;;;;;0.00;0.00;;;24.70;88.50;226.50;231333.00;;;;5012279;28;20215;-70
2022/08/12 09:31:42;;;;;;;0.00;0.00;;;24.70;88.70;226.50;231333.00;;;;5017517;28;20195;-71
2022/08/12 09:34:32;;;;;;;0.00;0.00;;;24.80;88.90;226.50;231333.00;;;;5029659;28;20202;-71
2022/08/12 09:37:03;;;;;;;0.00;0.00;;;25.00;87.90;226.50;231333.00;;;;5031519;28;20210;-71
2022/08/12 09:39:50;;;;;;;0.00;0.00;;;25.20;88.00;226.50;231333.00;;;;5012978;28;20278;-70
2022/08/12 09:45:48;;;;;;;0.00;0.00;;;25.70;86.00;226.50;231333.00;;;;5031092;28;20224;-71
2022/08/12 09:48:36;;;;;;;0.00;0.00;;;25.80;85.90;226.50;231333.00;;;;5024203;28;20203;-70
2022/08/12 09:51:12;;;;;;;0.00;0.00;;;25.90;85.00;226.50;231333.00;;;;5012416;28;20203;-71
2022/08/12 09:53:50;;;;;;;0.00;0.00;;;26.10;83.60;226.50;231333.00;;;;5012546;28;20195;-72
2022/08/12 09:56:39;;;;;;;0.00;0.00;;;26.30;83.30;226.50;231333.00;;;;5030202;28;20211;-72
2022/08/12 09:59:27;;;;;;;0.00;0.00;;;26.40;82.40;226.50;231333.00;;;;5018632;28;20196;-72
2022/08/12 10:02:16;;;;;;;0.00;0.00;;;26.40;81.10;226.50;231333.00;;;;5010037;28;20977;-72
2022/08/12 10:05:08;;;;;;;0.00;0.00;;;26.50;80.90;226.50;231333.00;;;;5020031;28;20195;-72
2022/08/12 10:07:44;;;;;;;0.00;0.00;;;26.70;80.60;226.50;231333.00;;;;5031422;28;20581;-71
2022/08/12 10:10:13;;;;;;;0.00;0.00;;;26.90;79.10;226.50;231333.00;;;;5011989;28;20282;-72
2022/08/12 10:16:04;;;;;;;0.00;0.00;;;27.00;77.90;226.50;231333.00;;;;5026281;28;20229;-72
2022/08/12 10:18:36;;;;;;;0.00;0.00;;;27.20;78.20;226.50;231333.00;;;;5021070;28;20199;-72
2022/08/12 10:21:22;;;;;;;0.00;0.00;;;27.30;78.20;226.50;231333.00;;;;5014007;28;20187;-71
2022/08/12 10:23:53;;;;;;;0.00;0.00;;;27.50;77.10;226.50;231333.00;;;;5015560;28;20209;-72
2022/08/12 10:32:22;;;;;;;0.00;0.00;;;27.70;74.70;226.50;231333.00;;;;5018793;28;20201;-71
2022/08/12 10:35:15;;;;;;;0.00;0.00;;;27.90;75.00;226.50;231333.00;;;;5021320;28;20192;-70
2022/08/12 10:37:45;;;;;;;0.00;0.00;;;28.00;74.50;226.50;231333.00;;;;5020226;28;20199;-70
2022/08/12 10:43:39;;;;;;;0.00;0.00;;;28.10;74.10;226.50;231333.00;;;;5027278;28;20254;-71
2022/08/12 10:43:41;;;;;;;0.00;0.00;;;28.30;74.10;226.50;231333.00;;;;5034691;28;20214;-71
2022/08/12 10:46:24;;;;;;;0.00;0.00;;;28.40;73.00;226.50;231333.00;;;;5022659;28;20219;-71
2022/08/12 10:49:00;;;;;;;0.00;0.00;;;28.50;73.60;226.50;231333.00;;;;5015028;28;20191;-71
2022/08/12 10:51:50;;;;;;;0.00;0.00;;;28.40;72.70;226.50;231333.00;;;;5022650;28;20192;-72
2022/08/12 10:54:40;;;;;;;0.00;0.00;;;28.40;73.40;226.50;231333.00;;;;5027519;28;20195;-71
2022/08/12 10:57:09;;;;;;;0.00;0.00;;;28.60;73.90;226.50;231333.00;;;;5016428;28;20219;-72
2022/08/12 10:59:58;;;;;;;0.00;0.00;;;28.70;72.90;226.50;231333.00;;;;5012856;28;20204;-72
2022/08/12 11:02:53;;;;;;;0.00;0.00;;;28.90;72.10;226.50;231333.00;;;;5021119;28;20192;-72
2022/08/12 11:05:43;;;;;;;0.00;0.00;;;29.00;70.70;226.50;231333.00;;;;5033251;28;20215;-71
2022/08/12 11:08:33;;;;;;;0.00;0.00;;;29.40;70.50;226.50;231333.00;;;;5025394;28;20620;-72
2022/08/12 11:11:13;;;;;;;0.00;0.00;;;29.50;70.00;226.50;231333.00;;;;5013459;28;20591;-72
2022/08/12 11:13:45;;;;;;;0.00;0.00;;;29.50;69.30;226.50;231333.00;;;;5026742;28;20278;-71
2022/08/12 11:16:16;;;;;;;0.00;0.00;;;29.50;69.40;226.50;231333.00;;;;5030260;28;20268;-73
2022/08/12 11:18:50;;;;;;;0.00;0.00;;;29.40;69.80;226.50;231333.00;;;;5030547;28;20218;-73
2022/08/12 11:21:22;;;;;;;0.00;0.00;;;29.30;68.90;226.50;231333.00;;;;5029843;28;20210;-72
2022/08/12 11:24:11;;;;;;;0.00;0.00;;;29.30;69.00;226.50;231333.00;;;;5026036;28;20202;-72
2022/08/12 11:26:59;;;;;;;0.00;0.00;;;29.40;69.10;226.50;231333.00;;;;5025522;28;20227;-72
2022/08/12 11:29:30;;;;;;;0.00;0.00;;;29.40;69.50;226.50;231333.00;;;;5010918;28;20207;-72
2022/08/12 11:32:18;;;;;;;0.00;0.00;;;29.50;69.40;226.50;231333.00;;;;5011109;28;20552;-73
2022/08/12 11:34:46;;;;;;;0.00;0.00;;;29.80;69.00;226.50;231333.00;;;;5030576;28;20564;-73
2022/08/12 11:37:21;;;;;;;0.00;0.00;;;29.90;68.90;226.50;231333.00;;;;5021758;28;20586;-72
2022/08/12 11:39:55;;;;;;;0.00;0.00;;;30.20;68.60;226.50;231333.00;;;;5019491;28;20203;-72
2022/08/12 11:42:34;;;;;;;0.00;0.00;;;30.20;68.20;226.50;231333.00;;;;5025343;28;20195;-72
2022/08/12 11:45:07;;;;;;;0.00;0.00;;;30.20;67.20;226.50;231333.00;;;;5033346;28;20219;-72
2022/08/12 11:47:37;;;;;;;0.00;0.00;;;30.20;67.80;226.50;231333.00;;;;5023938;28;20595;-72
2022/08/12 11:50:08;;;;;;;0.00;0.00;;;30.60;67.70;226.50;231333.00;;;;5015183;28;20212;-72
2022/08/12 11:52:46;;;;;;;0.00;0.00;;;30.70;67.70;226.50;231333.00;;;;5017856;28;20199;-71
2022/08/12 11:55:26;;;;;;;0.00;0.00;;;31.00;67.20;226.50;231333.00;;;;5021922;28;20194;-72
2022/08/12 11:57:57;;;;;;;0.00;0.00;;;31.10;67.00;226.50;231333.00;;;;5031075;28;20190;-72
2022/08/12 12:00:45;;;;;;;0.00;0.00;;;31.10;67.10;226.50;231333.00;;;;5035549;28;20211;-72
2022/08/12 12:03:33;;;;;;;0.00;0.00;;;31.20;67.10;226.50;231333.00;;;;5034591;28;20446;-71
2022/08/12 12:06:14;;;;;;;0.00;0.00;;;31.10;66.90;226.50;231333.00;;;;5033358;28;20218;-72
2022/08/12 12:08:45;;;;;;;0.00;0.00;;;30.90;66.70;226.50;231333.00;;;;5024122;28;20237;-71
2022/08/12 12:11:22;;;;;;;0.00;0.00;;;30.70;67.50;226.50;231333.00;;;;5014300;28;20277;-73
2022/08/12 12:13:50;;;;;;;0.00;0.00;;;30.80;67.40;226.50;231333.00;;;;5028587;28;20194;-72
2022/08/12 12:16:37;;;;;;;0.00;0.00;;;30.70;67.50;226.50;231333.00;;;;5031552;28;20214;-72
2022/08/12 12:19:09;;;;;;;0.00;0.00;;;30.60;67.10;226.50;231333.00;;;;5013891;28;20204;-73
2022/08/12 12:21:38;;;;;;;0.00;0.00;;;30.50;67.40;226.50;231333.00;;;;5014243;28;20254;-73
2022/08/12 12:24:16;;;;;;;0.00;0.00;;;30.60;67.00;226.50;231333.00;;;;5023413;28;20281;-73
2022/08/12 12:26:50;;;;;;;0.00;0.00;;;30.50;66.90;226.50;231333.00;;;;5032352;28;20233;-74
2022/08/12 12:29:29;;;;;;;0.00;0.00;;;30.60;67.30;226.50;231333.00;;;;5013274;28;20183;-74
2022/08/12 12:32:18;;;;;;;0.00;0.00;;;30.70;67.40;226.50;231333.00;;;;5013580;28;20254;-74
2022/08/12 12:34:56;;;;;;;0.00;0.00;;;30.60;67.20;226.50;231333.00;;;;5026110;28;20201;-74
2022/08/12 12:37:55;;;;;;;0.00;0.00;;;30.80;67.40;226.50;231333.00;;;;5033390;28;20199;-75
2022/08/12 12:40:42;;;;;;;0.00;0.00;;;30.70;67.00;226.50;231333.00;;;;5034255;28;20195;-75
2022/08/12 12:43:13;;;;;;;0.00;0.00;;;30.50;67.20;226.50;231333.00;;;;5036301;28;20203;-75
2022/08/12 12:45:43;;;;;;;0.00;0.00;;;30.50;67.40;226.50;231333.00;;;;5028972;28;20219;-74
2022/08/12 12:48:16;;;;;;;0.00;0.00;;;30.40;67.90;226.50;231333.00;;;;5033574;28;20293;-75
2022/08/12 12:51:14;;;;;;;0.00;0.00;;;30.50;68.10;30.30;97038.00;;;;5025407;28;20686;-75
2022/08/12 12:53:37;;;;;;;0.00;0.00;;;30.40;67.70;30.40;96982.00;;;;5021773;28;20195;-76
2022/08/12 12:56:25;;;;;;;0.00;0.00;;;30.60;67.90;30.20;96982.00;;;;5028799;28;20238;-73
2022/08/12 12:59:04;;;;;;;0.00;0.00;;;30.60;68.00;29.80;96981.00;;;;5033925;28;20289;-74
2022/08/12 13:01:33;;;;;;;0.00;0.00;;;30.30;67.80;29.20;96953.00;;;;5016458;28;20690;-74
2022/08/12 13:04:10;;;;;;;0.00;0.00;;;29.70;68.30;29.10;97009.00;;;;5022555;28;20209;-74
2022/08/12 13:06:41;;;;;;;0.00;0.00;;;29.80;68.70;29.50;96948.00;;;;5023675;28;20442;-75
2022/08/12 13:09:11;;;;;;;0.00;0.00;;;29.90;68.50;29.50;96958.00;;;;5026818;28;20439;-74
2022/08/12 13:11:41;;;;;;;0.00;0.00;;;29.90;68.50;29.40;96968.00;;;;5033031;28;20215;-74